Share

Lytton, British Columbia

Lytton (CWLY) Elev 751 ft | 50.22 °N, 121.58 °W | Change Station

Current weather conditions updated 38 minutes ago

Partly Cloudy
Partly Cloudy
57 °F
Feels Like 57 °F
N
16
Wind Variable Wind from South
Gusts 29 mph
Sunrise 6:02 AM
Sunset 8:08 PM
Moon Waning Gibbous

Today is forecast to be Cooler than yesterday. Chance of late night showers tomorrow night.

Pressure 30.17 in
Visibility 9.0 miles
Clouds Few 12000 ft
Dew Point 30 °F
Humidity 36%
Rainfall 0.00 in
Snow Depth Not available.
UV 6 out of 16
Pollen Not available.
Air Quality Not available.
Flu Activity Not available.
METAR CWLY 202200Z AUTO 19014G25KT 9SM FEW120 14/M01 A3015 RMK MAX WND 19017KT AT 2114Z SLP214

More Conditions Fewer Conditions

Pressure 30.17 in
Visibility 9.0 miles
Clouds Few 12000 ft
Dew Point 30 °F
Humidity 36%
Rainfall 0.00 in
Snow Depth Not available.
UV 6 out of 16
Pollen Not available.
Air Quality Not available.
Flu Activity Not available.
METAR CWLY 202200Z AUTO 19014G25KT 9SM FEW120 14/M01 A3015 RMK MAX WND 19017KT AT 2114Z SLP214

More Conditions Fewer Conditions

10-Day Weather Forecast

Almanac

Astronomy

Apr. 20, 2014 Rise Set
Actual Time 6:02 AM PDT 8:08 PM PDT
Civil Twilight 5:27 AM PDT 8:43 PM PDT
Nautical Twilight 4:43 AM PDT 9:27 PM PDT
Astronomical Twilight 3:54 AM PDT 10:17 PM PDT
Moon 1:05 AM PDT 10:17 AM PDT
Length of Visible Light 15h 16m
Length of Day
14h 06m
Tomorrow will be 3m 34s longer.
Waning Gibbous, 66% of the Moon is Illuminated
Today
Waning Gibbous
Apr 22
Last Quarter
Apr 29
New
May 6
First Quarter
May 14
Full

Today's Extremes

Country Highs Country Lows

Community

  • spring skiing mount Baker WA
    spring skiing mount Baker WA
  • Morning Sun
    Morning Sun
  • after rain
    after rain
  • Columbine
    Columbine
  • Easter Sunrise
    Easter Sunrise

WunderPhotos

Upload Photos

1,703,423 photos uploaded!

WunderBlogs® & News

Nearby

Snow Depth

Not available.

Coastal Water Temperatures

Place Temperature
No Stations Reporting

Earthquake Activity

City Distance Mag. Time & Date
No recent earthquake activity has been reported nearby.
Minimum magnitude displayed is 2.5.

Nearby Weather Stations

There are no personal weather stations in this area.

What do you think?

We're not finished. Please let us know what you like, what you don't like, and what you are still missing.